sensor_id;sensor_type;location;lat;lon;timestamp;pressure;altitude;pressure_sealevel;temperature;humidity
78373;BME280;67656;52.074;4.758;2023-10-08T00:03:37;102366.91;;;18.68;100.00
78373;BME280;67656;52.074;4.758;2023-10-08T00:08:38;102365.50;;;18.57;100.00
78373;BME280;67656;52.074;4.758;2023-10-08T00:13:38;102372.66;;;18.57;100.00
78373;BME280;67656;52.074;4.758;2023-10-08T00:18:39;102374.28;;;18.61;100.00
78373;BME280;67656;52.074;4.758;2023-10-08T00:23:45;102361.50;;;18.69;100.00
78373;BME280;67656;52.074;4.758;2023-10-08T00:28:46;102347.59;;;18.83;100.00
78373;BME280;67656;52.074;4.758;2023-10-08T00:33:47;102346.59;;;18.86;100.00
78373;BME280;67656;52.074;4.758;2023-10-08T00:38:47;102339.28;;;18.91;100.00
78373;BME280;67656;52.074;4.758;2023-10-08T00:43:48;102331.59;;;19.06;100.00
78373;BME280;67656;52.074;4.758;2023-10-08T00:48:50;102320.22;;;19.00;100.00
78373;BME280;67656;52.074;4.758;2023-10-08T00:53:59;102315.78;;;18.99;100.00
78373;BME280;67656;52.074;4.758;2023-10-08T00:59:00;102328.34;;;18.97;100.00
78373;BME280;67656;52.074;4.758;2023-10-08T01:04:01;102332.19;;;18.90;100.00
78373;BME280;67656;52.074;4.758;2023-10-08T01:09:01;102339.88;;;18.76;100.00
78373;BME280;67656;52.074;4.758;2023-10-08T01:14:02;102337.00;;;18.58;100.00
78373;BME280;67656;52.074;4.758;2023-10-08T01:19:02;102346.88;;;18.56;100.00
78373;BME280;67656;52.074;4.758;2023-10-08T01:24:03;102361.25;;;18.52;100.00
78373;BME280;67656;52.074;4.758;2023-10-08T01:29:03;102349.84;;;18.47;100.00
78373;BME280;67656;52.074;4.758;2023-10-08T01:34:04;102351.09;;;18.38;100.00
78373;BME280;67656;52.074;4.758;2023-10-08T01:39:04;102366.25;;;18.37;100.00
78373;BME280;67656;52.074;4.758;2023-10-08T01:44:05;102344.00;;;18.37;100.00
78373;BME280;67656;52.074;4.758;2023-10-08T01:49:06;102362.88;;;18.32;100.00
78373;BME280;67656;52.074;4.758;2023-10-08T01:54:06;102389.72;;;18.29;100.00
78373;BME280;67656;52.074;4.758;2023-10-08T01:59:16;102403.47;;;18.44;100.00
78373;BME280;67656;52.074;4.758;2023-10-08T02:04:16;102401.75;;;18.41;100.00
78373;BME280;67656;52.074;4.758;2023-10-08T02:09:17;102408.16;;;18.37;100.00
78373;BME280;67656;52.074;4.758;2023-10-08T02:14:18;102393.88;;;18.38;100.00
78373;BME280;67656;52.074;4.758;2023-10-08T02:19:18;102372.59;;;18.35;100.00
78373;BME280;67656;52.074;4.758;2023-10-08T02:24:19;102400.06;;;18.38;100.00
78373;BME280;67656;52.074;4.758;2023-10-08T02:29:19;102381.44;;;18.37;100.00
78373;BME280;67656;52.074;4.758;2023-10-08T02:34:20;102384.97;;;18.37;100.00
78373;BME280;67656;52.074;4.758;2023-10-08T02:39:20;102387.16;;;18.26;100.00
78373;BME280;67656;52.074;4.758;2023-10-08T02:44:20;102396.91;;;18.27;100.00
78373;BME280;67656;52.074;4.758;2023-10-08T02:49:21;102407.69;;;18.24;100.00
78373;BME280;67656;52.074;4.758;2023-10-08T02:54:22;102394.50;;;18.19;100.00
78373;BME280;67656;52.074;4.758;2023-10-08T02:59:23;102390.25;;;18.14;100.00
78373;BME280;67656;52.074;4.758;2023-10-08T03:04:24;102409.06;;;18.10;100.00
78373;BME280;67656;52.074;4.758;2023-10-08T03:09:24;102402.88;;;18.08;100.00
78373;BME280;67656;52.074;4.758;2023-10-08T03:14:25;102384.53;;;17.99;100.00
78373;BME280;67656;52.074;4.758;2023-10-08T03:19:25;102398.06;;;17.93;100.00
78373;BME280;67656;52.074;4.758;2023-10-08T03:24:26;102396.50;;;17.86;100.00
78373;BME280;67656;52.074;4.758;2023-10-08T03:29:26;102400.25;;;17.81;100.00
78373;BME280;67656;52.074;4.758;2023-10-08T03:34:27;102416.13;;;17.85;100.00
78373;BME280;67656;52.074;4.758;2023-10-08T03:39:29;102426.81;;;17.85;100.00
78373;BME280;67656;52.074;4.758;2023-10-08T03:44:29;102435.56;;;17.90;100.00
78373;BME280;67656;52.074;4.758;2023-10-08T03:49:29;102448.91;;;17.90;100.00
78373;BME280;67656;52.074;4.758;2023-10-08T03:54:30;102445.16;;;17.95;100.00
78373;BME280;67656;52.074;4.758;2023-10-08T03:59:30;102446.03;;;17.96;100.00
78373;BME280;67656;52.074;4.758;2023-10-08T04:04:31;102461.34;;;17.91;100.00
78373;BME280;67656;52.074;4.758;2023-10-08T04:09:31;102482.78;;;17.89;100.00
78373;BME280;67656;52.074;4.758;2023-10-08T04:14:31;102483.72;;;17.87;100.00
78373;BME280;67656;52.074;4.758;2023-10-08T04:19:32;102477.38;;;17.91;100.00
78373;BME280;67656;52.074;4.758;2023-10-08T04:24:32;102489.03;;;17.88;100.00
78373;BME280;67656;52.074;4.758;2023-10-08T04:29:33;102503.06;;;17.66;100.00
78373;BME280;67656;52.074;4.758;2023-10-08T04:34:34;102507.00;;;17.25;100.00
78373;BME280;67656;52.074;4.758;2023-10-08T04:39:35;102493.78;;;16.88;100.00
78373;BME280;67656;52.074;4.758;2023-10-08T04:44:35;102506.53;;;16.77;100.00
78373;BME280;67656;52.074;4.758;2023-10-08T04:49:36;102495.56;;;16.56;100.00
78373;BME280;67656;52.074;4.758;2023-10-08T04:54:37;102479.25;;;16.67;100.00
78373;BME280;67656;52.074;4.758;2023-10-08T04:59:37;102513.88;;;16.34;100.00
78373;BME280;67656;52.074;4.758;2023-10-08T05:04:39;102508.81;;;16.25;100.00
78373;BME280;67656;52.074;4.758;2023-10-08T05:09:40;102509.66;;;16.25;100.00
78373;BME280;67656;52.074;4.758;2023-10-08T05:14:40;102505.78;;;16.39;100.00
78373;BME280;67656;52.074;4.758;2023-10-08T05:19:41;102507.53;;;16.40;100.00
78373;BME280;67656;52.074;4.758;2023-10-08T05:24:41;102499.91;;;16.24;100.00
78373;BME280;67656;52.074;4.758;2023-10-08T05:29:42;102513.47;;;16.15;100.00
78373;BME280;67656;52.074;4.758;2023-10-08T05:34:42;102513.41;;;16.18;100.00
78373;BME280;67656;52.074;4.758;2023-10-08T05:39:43;102494.06;;;16.10;100.00
78373;BME280;67656;52.074;4.758;2023-10-08T05:44:44;102491.56;;;16.04;100.00
78373;BME280;67656;52.074;4.758;2023-10-08T05:49:45;102506.03;;;15.92;100.00
78373;BME280;67656;52.074;4.758;2023-10-08T05:54:45;102526.19;;;16.04;100.00
78373;BME280;67656;52.074;4.758;2023-10-08T05:59:47;102523.25;;;16.15;100.00
78373;BME280;67656;52.074;4.758;2023-10-08T06:04:48;102531.41;;;16.07;100.00
78373;BME280;67656;52.074;4.758;2023-10-08T06:09:54;102541.69;;;16.22;100.00
78373;BME280;67656;52.074;4.758;2023-10-08T06:15:13;102552.94;;;15.99;100.00
78373;BME280;67656;52.074;4.758;2023-10-08T06:20:35;102566.56;;;15.84;100.00
78373;BME280;67656;52.074;4.758;2023-10-08T06:25:42;102579.59;;;15.54;100.00
78373;BME280;67656;52.074;4.758;2023-10-08T06:31:06;102583.44;;;15.40;100.00
78373;BME280;67656;52.074;4.758;2023-10-08T06:36:09;102592.00;;;15.55;100.00
78373;BME280;67656;52.074;4.758;2023-10-08T06:41:19;102570.97;;;15.42;100.00
78373;BME280;67656;52.074;4.758;2023-10-08T06:46:49;102588.53;;;15.51;100.00
78373;BME280;67656;52.074;4.758;2023-10-08T06:52:13;102594.16;;;15.37;100.00
78373;BME280;67656;52.074;4.758;2023-10-08T06:57:44;102595.88;;;15.40;100.00
78373;BME280;67656;52.074;4.758;2023-10-08T07:02:50;102598.28;;;15.50;100.00
78373;BME280;67656;52.074;4.758;2023-10-08T07:08:02;102608.47;;;15.74;100.00
78373;BME280;67656;52.074;4.758;2023-10-08T07:13:06;102618.41;;;15.65;100.00
78373;BME280;67656;52.074;4.758;2023-10-08T07:18:13;102608.28;;;15.39;100.00
78373;BME280;67656;52.074;4.758;2023-10-08T07:23:14;102621.50;;;15.44;100.00
78373;BME280;67656;52.074;4.758;2023-10-08T07:28:15;102627.81;;;15.40;100.00
78373;BME280;67656;52.074;4.758;2023-10-08T07:33:18;102627.47;;;15.57;100.00
78373;BME280;67656;52.074;4.758;2023-10-08T07:38:19;102622.34;;;15.46;100.00
78373;BME280;67656;52.074;4.758;2023-10-08T07:43:20;102615.31;;;15.87;100.00
78373;BME280;67656;52.074;4.758;2023-10-08T07:48:20;102634.97;;;15.80;100.00
78373;BME280;67656;52.074;4.758;2023-10-08T07:53:21;102635.75;;;15.87;100.00
78373;BME280;67656;52.074;4.758;2023-10-08T07:58:30;102644.97;;;16.11;100.00
78373;BME280;67656;52.074;4.758;2023-10-08T08:03:38;102648.88;;;16.34;100.00
78373;BME280;67656;52.074;4.758;2023-10-08T08:08:41;102655.69;;;16.08;100.00
78373;BME280;67656;52.074;4.758;2023-10-08T08:14:01;102653.13;;;16.03;100.00
78373;BME280;67656;52.074;4.758;2023-10-08T08:19:02;102648.59;;;16.07;100.00
78373;BME280;67656;52.074;4.758;2023-10-08T08:24:03;102670.00;;;16.04;100.00
78373;BME280;67656;52.074;4.758;2023-10-08T08:29:04;102674.84;;;16.25;100.00
78373;BME280;67656;52.074;4.758;2023-10-08T08:34:09;102682.34;;;16.06;100.00
78373;BME280;67656;52.074;4.758;2023-10-08T08:39:10;102680.66;;;16.43;100.00
78373;BME280;67656;52.074;4.758;2023-10-08T08:44:10;102684.16;;;16.45;100.00
78373;BME280;67656;52.074;4.758;2023-10-08T08:55:21;102688.38;;;16.54;100.00
78373;BME280;67656;52.074;4.758;2023-10-08T09:00:26;102695.75;;;16.42;100.00
78373;BME280;67656;52.074;4.758;2023-10-08T09:05:28;102680.31;;;16.57;100.00
78373;BME280;67656;52.074;4.758;2023-10-08T09:10:43;102672.66;;;16.43;100.00
78373;BME280;67656;52.074;4.758;2023-10-08T09:16:15;102663.84;;;17.13;100.00
78373;BME280;67656;52.074;4.758;2023-10-08T09:21:19;102673.28;;;16.91;100.00
78373;BME280;67656;52.074;4.758;2023-10-08T09:26:47;102669.25;;;17.10;100.00
78373;BME280;67656;52.074;4.758;2023-10-08T09:43:41;102674.97;;;17.29;100.00
78373;BME280;67656;52.074;4.758;2023-10-08T09:48:51;102666.22;;;17.24;100.00
78373;BME280;67656;52.074;4.758;2023-10-08T09:54:03;102651.19;;;17.53;100.00
78373;BME280;67656;52.074;4.758;2023-10-08T09:59:06;102671.59;;;16.86;100.00
78373;BME280;67656;52.074;4.758;2023-10-08T10:04:22;102670.56;;;16.94;100.00
78373;BME280;67656;52.074;4.758;2023-10-08T10:09:26;102672.50;;;16.85;100.00
78373;BME280;67656;52.074;4.758;2023-10-08T10:14:43;102681.09;;;17.33;100.00
78373;BME280;67656;52.074;4.758;2023-10-08T10:19:43;102681.09;;;17.33;100.00
78373;BME280;67656;52.074;4.758;2023-10-08T10:24:46;102687.94;;;17.43;100.00
78373;BME280;67656;52.074;4.758;2023-10-08T10:29:50;102688.69;;;17.48;100.00
78373;BME280;67656;52.074;4.758;2023-10-08T10:34:51;102682.63;;;17.43;100.00
78373;BME280;67656;52.074;4.758;2023-10-08T10:39:52;102691.19;;;17.55;100.00
78373;BME280;67656;52.074;4.758;2023-10-08T10:44:54;102685.94;;;17.83;100.00
78373;BME280;67656;52.074;4.758;2023-10-08T10:49:55;102681.97;;;17.98;100.00
78373;BME280;67656;52.074;4.758;2023-10-08T10:54:55;102676.72;;;17.30;100.00
78373;BME280;67656;52.074;4.758;2023-10-08T11:00:02;102670.53;;;17.93;100.00
78373;BME280;67656;52.074;4.758;2023-10-08T11:05:02;102668.94;;;17.56;100.00
78373;BME280;67656;52.074;4.758;2023-10-08T11:10:03;102676.25;;;18.10;100.00
78373;BME280;67656;52.074;4.758;2023-10-08T11:15:09;102667.47;;;18.35;100.00
78373;BME280;67656;52.074;4.758;2023-10-08T11:20:27;102668.00;;;17.88;100.00
78373;BME280;67656;52.074;4.758;2023-10-08T11:25:28;102668.69;;;17.95;100.00
78373;BME280;67656;52.074;4.758;2023-10-08T11:30:29;102673.47;;;18.14;100.00
78373;BME280;67656;52.074;4.758;2023-10-08T11:35:32;102656.75;;;18.35;100.00
78373;BME280;67656;52.074;4.758;2023-10-08T11:40:32;102656.78;;;18.62;100.00
78373;BME280;67656;52.074;4.758;2023-10-08T11:45:33;102646.06;;;18.64;100.00
78373;BME280;67656;52.074;4.758;2023-10-08T11:50:33;102644.66;;;18.79;100.00
78373;BME280;67656;52.074;4.758;2023-10-08T11:55:35;102640.00;;;19.11;100.00
78373;BME280;67656;52.074;4.758;2023-10-08T12:00:57;102630.63;;;19.24;100.00
78373;BME280;67656;52.074;4.758;2023-10-08T12:12:10;102604.06;;;18.94;100.00
78373;BME280;67656;52.074;4.758;2023-10-08T12:17:11;102588.41;;;19.56;100.00
78373;BME280;67656;52.074;4.758;2023-10-08T12:22:14;102576.69;;;19.11;100.00
78373;BME280;67656;52.074;4.758;2023-10-08T12:33:55;102584.56;;;19.40;100.00
78373;BME280;67656;52.074;4.758;2023-10-08T12:39:17;102582.81;;;19.39;100.00
78373;BME280;67656;52.074;4.758;2023-10-08T12:44:21;102584.09;;;19.28;100.00
78373;BME280;67656;52.074;4.758;2023-10-08T12:49:24;102566.53;;;18.96;100.00
78373;BME280;67656;52.074;4.758;2023-10-08T12:55:04;102548.41;;;19.74;100.00
78373;BME280;67656;52.074;4.758;2023-10-08T13:06:15;102547.13;;;18.89;100.00
78373;BME280;67656;52.074;4.758;2023-10-08T13:11:35;102540.00;;;18.88;100.00
78373;BME280;67656;52.074;4.758;2023-10-08T13:23:16;102545.00;;;18.47;100.00
78373;BME280;67656;52.074;4.758;2023-10-08T13:28:42;102531.13;;;18.62;100.00
78373;BME280;67656;52.074;4.758;2023-10-08T13:33:54;102546.06;;;18.42;100.00
78373;BME280;67656;52.074;4.758;2023-10-08T13:38:54;102539.97;;;18.64;100.00
78373;BME280;67656;52.074;4.758;2023-10-08T13:43:55;102538.09;;;18.92;100.00
78373;BME280;67656;52.074;4.758;2023-10-08T13:55:17;102530.66;;;19.25;100.00
78373;BME280;67656;52.074;4.758;2023-10-08T14:00:27;102533.56;;;19.43;100.00
78373;BME280;67656;52.074;4.758;2023-10-08T14:05:51;102513.53;;;19.53;100.00
78373;BME280;67656;52.074;4.758;2023-10-08T14:11:29;102527.16;;;19.23;100.00
78373;BME280;67656;52.074;4.758;2023-10-08T14:16:36;102512.75;;;19.03;100.00
78373;BME280;67656;52.074;4.758;2023-10-08T14:27:51;102509.59;;;19.40;100.00
78373;BME280;67656;52.074;4.758;2023-10-08T14:33:00;102486.63;;;19.78;100.00
78373;BME280;67656;52.074;4.758;2023-10-08T14:38:01;102491.47;;;19.46;100.00
78373;BME280;67656;52.074;4.758;2023-10-08T14:43:01;102483.59;;;19.65;100.00
78373;BME280;67656;52.074;4.758;2023-10-08T14:48:02;102478.31;;;19.86;100.00
78373;BME280;67656;52.074;4.758;2023-10-08T14:53:03;102477.53;;;19.38;100.00
78373;BME280;67656;52.074;4.758;2023-10-08T14:58:07;102465.09;;;19.59;100.00
78373;BME280;67656;52.074;4.758;2023-10-08T15:03:08;102464.19;;;19.14;100.00
78373;BME280;67656;52.074;4.758;2023-10-08T15:08:22;102469.19;;;19.46;100.00
78373;BME280;67656;52.074;4.758;2023-10-08T15:13:22;102456.97;;;19.39;100.00
78373;BME280;67656;52.074;4.758;2023-10-08T15:18:25;102462.28;;;19.40;100.00
78373;BME280;67656;52.074;4.758;2023-10-08T15:23:29;102445.94;;;19.24;100.00
78373;BME280;67656;52.074;4.758;2023-10-08T15:28:32;102454.84;;;19.25;100.00
78373;BME280;67656;52.074;4.758;2023-10-08T15:33:33;102454.16;;;18.96;100.00
78373;BME280;67656;52.074;4.758;2023-10-08T15:38:53;102456.44;;;19.07;100.00
78373;BME280;67656;52.074;4.758;2023-10-08T15:43:54;102458.66;;;18.95;100.00
78373;BME280;67656;52.074;4.758;2023-10-08T15:48:54;102452.47;;;18.92;100.00
78373;BME280;67656;52.074;4.758;2023-10-08T15:53:55;102439.34;;;18.62;100.00
78373;BME280;67656;52.074;4.758;2023-10-08T15:58:56;102441.56;;;18.49;100.00
78373;BME280;67656;52.074;4.758;2023-10-08T16:03:56;102449.41;;;18.53;100.00
78373;BME280;67656;52.074;4.758;2023-10-08T16:08:59;102447.84;;;18.48;100.00
78373;BME280;67656;52.074;4.758;2023-10-08T16:19:41;102440.19;;;18.11;100.00
78373;BME280;67656;52.074;4.758;2023-10-08T16:24:44;102435.88;;;17.80;100.00
78373;BME280;67656;52.074;4.758;2023-10-08T16:29:44;102426.81;;;17.85;100.00
78373;BME280;67656;52.074;4.758;2023-10-08T16:34:45;102419.34;;;17.69;100.00
78373;BME280;67656;52.074;4.758;2023-10-08T16:39:45;102406.31;;;17.58;100.00
78373;BME280;67656;52.074;4.758;2023-10-08T16:44:46;102406.22;;;17.33;100.00
78373;BME280;67656;52.074;4.758;2023-10-08T16:49:46;102414.34;;;17.30;100.00
78373;BME280;67656;52.074;4.758;2023-10-08T16:54:47;102414.53;;;17.24;100.00
78373;BME280;67656;52.074;4.758;2023-10-08T16:59:48;102413.06;;;17.13;100.00
78373;BME280;67656;52.074;4.758;2023-10-08T17:04:49;102422.69;;;16.87;100.00
78373;BME280;67656;52.074;4.758;2023-10-08T17:55:45;102345.56;;;15.85;100.00
78373;BME280;67656;52.074;4.758;2023-10-08T18:00:46;102343.13;;;15.76;100.00
78373;BME280;67656;52.074;4.758;2023-10-08T18:05:47;102357.97;;;15.86;100.00
78373;BME280;67656;52.074;4.758;2023-10-08T18:10:48;102368.06;;;15.72;100.00
78373;BME280;67656;52.074;4.758;2023-10-08T18:15:48;102355.16;;;15.56;100.00
78373;BME280;67656;52.074;4.758;2023-10-08T18:20:51;102339.34;;;15.50;100.00
78373;BME280;67656;52.074;4.758;2023-10-08T18:25:52;102352.34;;;15.62;100.00
78373;BME280;67656;52.074;4.758;2023-10-08T18:31:30;102353.91;;;15.71;100.00
78373;BME280;67656;52.074;4.758;2023-10-08T18:36:35;102364.97;;;15.54;100.00
78373;BME280;67656;52.074;4.758;2023-10-08T18:41:36;102362.41;;;15.49;100.00
78373;BME280;67656;52.074;4.758;2023-10-08T18:46:43;102367.81;;;15.46;100.00
78373;BME280;67656;52.074;4.758;2023-10-08T18:51:47;102344.28;;;15.28;100.00
78373;BME280;67656;52.074;4.758;2023-10-08T18:56:51;102337.94;;;15.33;100.00
78373;BME280;67656;52.074;4.758;2023-10-08T19:01:52;102340.66;;;15.32;100.00
78373;BME280;67656;52.074;4.758;2023-10-08T19:06:52;102328.28;;;15.31;100.00
78373;BME280;67656;52.074;4.758;2023-10-08T19:11:53;102318.66;;;15.25;100.00
78373;BME280;67656;52.074;4.758;2023-10-08T19:16:55;102301.00;;;15.23;100.00
78373;BME280;67656;52.074;4.758;2023-10-08T19:21:57;102288.63;;;15.20;100.00
78373;BME280;67656;52.074;4.758;2023-10-08T19:26:57;102295.56;;;15.27;100.00
78373;BME280;67656;52.074;4.758;2023-10-08T19:32:00;102312.88;;;15.44;100.00
78373;BME280;67656;52.074;4.758;2023-10-08T19:37:03;102300.50;;;15.43;100.00
78373;BME280;67656;52.074;4.758;2023-10-08T19:42:04;102290.19;;;15.29;100.00
78373;BME280;67656;52.074;4.758;2023-10-08T19:47:05;102289.53;;;15.20;100.00
78373;BME280;67656;52.074;4.758;2023-10-08T19:52:05;102283.31;;;15.20;100.00
78373;BME280;67656;52.074;4.758;2023-10-08T19:57:06;102276.34;;;15.16;100.00
78373;BME280;67656;52.074;4.758;2023-10-08T20:02:08;102270.00;;;15.20;100.00
78373;BME280;67656;52.074;4.758;2023-10-08T20:07:14;102268.31;;;15.17;100.00
78373;BME280;67656;52.074;4.758;2023-10-08T20:12:15;102268.97;;;15.27;100.00
78373;BME280;67656;52.074;4.758;2023-10-08T20:17:15;102258.41;;;15.24;100.00
78373;BME280;67656;52.074;4.758;2023-10-08T20:22:16;102256.81;;;15.17;100.00
78373;BME280;67656;52.074;4.758;2023-10-08T20:27:17;102247.75;;;15.24;100.00
78373;BME280;67656;52.074;4.758;2023-10-08T20:32:17;102256.66;;;15.23;100.00
78373;BME280;67656;52.074;4.758;2023-10-08T20:37:23;102250.59;;;15.18;100.00
78373;BME280;67656;52.074;4.758;2023-10-08T20:42:25;102246.84;;;15.25;100.00
78373;BME280;67656;52.074;4.758;2023-10-08T20:47:26;102249.44;;;15.28;100.00
78373;BME280;67656;52.074;4.758;2023-10-08T20:52:26;102259.97;;;15.31;100.00
78373;BME280;67656;52.074;4.758;2023-10-08T20:57:27;102259.59;;;15.11;100.00
78373;BME280;67656;52.074;4.758;2023-10-08T21:02:27;102249.50;;;14.87;100.00
78373;BME280;67656;52.074;4.758;2023-10-08T21:07:28;102246.34;;;14.71;100.00
78373;BME280;67656;52.074;4.758;2023-10-08T21:12:28;102252.97;;;14.52;100.00
78373;BME280;67656;52.074;4.758;2023-10-08T21:17:29;102229.59;;;14.27;100.00
78373;BME280;67656;52.074;4.758;2023-10-08T21:22:29;102244.63;;;14.28;100.00
78373;BME280;67656;52.074;4.758;2023-10-08T21:27:30;102245.47;;;14.30;100.00
78373;BME280;67656;52.074;4.758;2023-10-08T21:32:30;102237.03;;;14.52;100.00
78373;BME280;67656;52.074;4.758;2023-10-08T21:37:30;102219.81;;;14.70;100.00
78373;BME280;67656;52.074;4.758;2023-10-08T21:42:31;102206.47;;;14.71;100.00
78373;BME280;67656;52.074;4.758;2023-10-08T21:47:35;102208.97;;;14.79;100.00
78373;BME280;67656;52.074;4.758;2023-10-08T21:52:36;102218.56;;;14.85;100.00
78373;BME280;67656;52.074;4.758;2023-10-08T21:57:37;102209.91;;;14.77;100.00
78373;BME280;67656;52.074;4.758;2023-10-08T22:02:45;102189.44;;;14.80;100.00
78373;BME280;67656;52.074;4.758;2023-10-08T22:07:46;102201.03;;;14.78;100.00
78373;BME280;67656;52.074;4.758;2023-10-08T22:12:48;102185.00;;;14.81;100.00
78373;BME280;67656;52.074;4.758;2023-10-08T22:17:48;102176.03;;;14.85;100.00
78373;BME280;67656;52.074;4.758;2023-10-08T22:22:49;102200.56;;;14.96;100.00
78373;BME280;67656;52.074;4.758;2023-10-08T22:27:49;102185.41;;;15.00;100.00
78373;BME280;67656;52.074;4.758;2023-10-08T22:32:49;102207.25;;;15.13;100.00
78373;BME280;67656;52.074;4.758;2023-10-08T22:37:50;102202.03;;;15.10;100.00
78373;BME280;67656;52.074;4.758;2023-10-08T22:42:51;102203.69;;;15.14;100.00
78373;BME280;67656;52.074;4.758;2023-10-08T22:47:51;102202.41;;;15.29;100.00
78373;BME280;67656;52.074;4.758;2023-10-08T22:52:52;102187.03;;;15.42;100.00
78373;BME280;67656;52.074;4.758;2023-10-08T22:57:52;102176.28;;;15.45;100.00
78373;BME280;67656;52.074;4.758;2023-10-08T23:02:53;102155.09;;;15.42;100.00
78373;BME280;67656;52.074;4.758;2023-10-08T23:07:53;102156.03;;;15.39;100.00
78373;BME280;67656;52.074;4.758;2023-10-08T23:12:53;102148.03;;;15.41;100.00
78373;BME280;67656;52.074;4.758;2023-10-08T23:17:54;102142.44;;;15.50;100.00
78373;BME280;67656;52.074;4.758;2023-10-08T23:22:54;102128.22;;;15.51;100.00
78373;BME280;67656;52.074;4.758;2023-10-08T23:27:55;102123.47;;;15.62;100.00
78373;BME280;67656;52.074;4.758;2023-10-08T23:32:55;102088.50;;;15.75;100.00
78373;BME280;67656;52.074;4.758;2023-10-08T23:37:56;102083.88;;;15.81;100.00
78373;BME280;67656;52.074;4.758;2023-10-08T23:42:57;102096.50;;;15.75;100.00
78373;BME280;67656;52.074;4.758;2023-10-08T23:47:58;102101.66;;;15.81;100.00
78373;BME280;67656;52.074;4.758;2023-10-08T23:52:59;102099.56;;;15.92;100.00
78373;BME280;67656;52.074;4.758;2023-10-08T23:58:00;102097.00;;;15.89;100.00
